sensor_id;sensor_type;location;lat;lon;timestamp;temperature;humidity
6672;DHT22;3372;48.690;12.362;2023-11-19T00:02:08;6.40;99.90
6672;DHT22;3372;48.690;12.362;2023-11-19T00:04:38;6.50;99.90
6672;DHT22;3372;48.690;12.362;2023-11-19T00:07:05;6.40;99.90
6672;DHT22;3372;48.690;12.362;2023-11-19T00:09:32;6.40;99.90
6672;DHT22;3372;48.690;12.362;2023-11-19T00:11:58;6.50;99.90
6672;DHT22;3372;48.690;12.362;2023-11-19T00:14:26;6.40;99.90
6672;DHT22;3372;48.690;12.362;2023-11-19T00:16:51;6.40;99.90
6672;DHT22;3372;48.690;12.362;2023-11-19T00:19:17;6.30;99.90
6672;DHT22;3372;48.690;12.362;2023-11-19T00:21:44;6.30;99.90
6672;DHT22;3372;48.690;12.362;2023-11-19T00:24:09;6.30;99.90
6672;DHT22;3372;48.690;12.362;2023-11-19T00:26:37;6.40;99.90
6672;DHT22;3372;48.690;12.362;2023-11-19T00:29:04;6.30;99.90
6672;DHT22;3372;48.690;12.362;2023-11-19T00:31:29;6.30;99.90
6672;DHT22;3372;48.690;12.362;2023-11-19T00:33:55;6.40;99.90
6672;DHT22;3372;48.690;12.362;2023-11-19T00:36:21;6.40;99.90
6672;DHT22;3372;48.690;12.362;2023-11-19T00:38:49;6.40;99.90
6672;DHT22;3372;48.690;12.362;2023-11-19T00:41:15;6.40;99.90
6672;DHT22;3372;48.690;12.362;2023-11-19T00:43:42;6.30;99.90
6672;DHT22;3372;48.690;12.362;2023-11-19T00:46:08;6.30;99.90
6672;DHT22;3372;48.690;12.362;2023-11-19T00:48:36;6.30;99.90
6672;DHT22;3372;48.690;12.362;2023-11-19T00:51:01;6.30;99.90
6672;DHT22;3372;48.690;12.362;2023-11-19T00:53:27;6.20;99.90
6672;DHT22;3372;48.690;12.362;2023-11-19T00:55:53;6.20;99.90
6672;DHT22;3372;48.690;12.362;2023-11-19T00:58:19;6.20;99.90
6672;DHT22;3372;48.690;12.362;2023-11-19T01:00:44;6.30;99.90
6672;DHT22;3372;48.690;12.362;2023-11-19T01:03:10;6.30;99.90
6672;DHT22;3372;48.690;12.362;2023-11-19T01:05:37;6.30;99.90
6672;DHT22;3372;48.690;12.362;2023-11-19T01:08:02;6.30;99.90
6672;DHT22;3372;48.690;12.362;2023-11-19T01:10:30;6.30;99.90
6672;DHT22;3372;48.690;12.362;2023-11-19T01:12:55;6.30;99.90
6672;DHT22;3372;48.690;12.362;2023-11-19T01:15:21;6.30;99.90
6672;DHT22;3372;48.690;12.362;2023-11-19T01:17:47;6.40;99.90
6672;DHT22;3372;48.690;12.362;2023-11-19T01:20:12;6.30;99.90
6672;DHT22;3372;48.690;12.362;2023-11-19T01:22:39;6.30;99.90
6672;DHT22;3372;48.690;12.362;2023-11-19T01:25:06;6.20;99.90
6672;DHT22;3372;48.690;12.362;2023-11-19T01:27:33;6.20;99.90
6672;DHT22;3372;48.690;12.362;2023-11-19T01:30:02;6.30;99.90
6672;DHT22;3372;48.690;12.362;2023-11-19T01:32:31;6.30;99.90
6672;DHT22;3372;48.690;12.362;2023-11-19T01:34:57;6.30;99.90
6672;DHT22;3372;48.690;12.362;2023-11-19T01:37:23;6.30;99.90
6672;DHT22;3372;48.690;12.362;2023-11-19T01:39:49;6.30;99.90
6672;DHT22;3372;48.690;12.362;2023-11-19T01:42:14;6.40;99.90
6672;DHT22;3372;48.690;12.362;2023-11-19T01:44:41;6.30;99.90
6672;DHT22;3372;48.690;12.362;2023-11-19T01:47:07;6.30;99.90
6672;DHT22;3372;48.690;12.362;2023-11-19T01:49:33;6.20;99.90
6672;DHT22;3372;48.690;12.362;2023-11-19T01:52:00;6.20;99.90
6672;DHT22;3372;48.690;12.362;2023-11-19T01:54:26;6.20;99.90
6672;DHT22;3372;48.690;12.362;2023-11-19T01:56:53;6.30;99.90
6672;DHT22;3372;48.690;12.362;2023-11-19T01:59:22;6.30;99.90
6672;DHT22;3372;48.690;12.362;2023-11-19T02:01:53;6.30;99.90
6672;DHT22;3372;48.690;12.362;2023-11-19T02:04:19;6.30;99.90
6672;DHT22;3372;48.690;12.362;2023-11-19T02:06:47;6.20;99.90
6672;DHT22;3372;48.690;12.362;2023-11-19T02:09:13;6.30;99.90
6672;DHT22;3372;48.690;12.362;2023-11-19T02:11:42;6.30;99.90
6672;DHT22;3372;48.690;12.362;2023-11-19T02:14:08;6.30;99.90
6672;DHT22;3372;48.690;12.362;2023-11-19T02:16:33;6.40;99.90
6672;DHT22;3372;48.690;12.362;2023-11-19T02:18:59;6.40;99.90
6672;DHT22;3372;48.690;12.362;2023-11-19T02:21:25;6.40;99.90
6672;DHT22;3372;48.690;12.362;2023-11-19T02:23:52;6.40;99.90
6672;DHT22;3372;48.690;12.362;2023-11-19T02:26:26;6.30;99.90
6672;DHT22;3372;48.690;12.362;2023-11-19T02:28:54;6.40;99.90
6672;DHT22;3372;48.690;12.362;2023-11-19T02:31:20;6.40;99.90
6672;DHT22;3372;48.690;12.362;2023-11-19T02:33:48;6.40;99.90
6672;DHT22;3372;48.690;12.362;2023-11-19T02:36:15;6.40;99.90
6672;DHT22;3372;48.690;12.362;2023-11-19T02:38:42;6.40;99.90
6672;DHT22;3372;48.690;12.362;2023-11-19T02:41:07;6.40;99.90
6672;DHT22;3372;48.690;12.362;2023-11-19T02:43:34;6.40;99.90
6672;DHT22;3372;48.690;12.362;2023-11-19T02:46:01;6.50;99.90
6672;DHT22;3372;48.690;12.362;2023-11-19T02:48:27;6.50;99.90
6672;DHT22;3372;48.690;12.362;2023-11-19T02:50:52;6.50;99.90
6672;DHT22;3372;48.690;12.362;2023-11-19T02:53:18;6.60;99.90
6672;DHT22;3372;48.690;12.362;2023-11-19T02:55:47;6.60;99.90
6672;DHT22;3372;48.690;12.362;2023-11-19T02:58:14;6.70;99.90
6672;DHT22;3372;48.690;12.362;2023-11-19T03:00:49;6.70;99.90
6672;DHT22;3372;48.690;12.362;2023-11-19T03:03:22;6.70;99.90
6672;DHT22;3372;48.690;12.362;2023-11-19T03:05:51;6.60;99.90
6672;DHT22;3372;48.690;12.362;2023-11-19T03:08:17;6.70;99.90
6672;DHT22;3372;48.690;12.362;2023-11-19T03:10:43;6.70;99.90
6672;DHT22;3372;48.690;12.362;2023-11-19T03:13:13;6.70;99.90
6672;DHT22;3372;48.690;12.362;2023-11-19T03:15:39;6.70;99.90
6672;DHT22;3372;48.690;12.362;2023-11-19T03:18:05;6.70;99.90
6672;DHT22;3372;48.690;12.362;2023-11-19T03:20:31;6.80;99.90
6672;DHT22;3372;48.690;12.362;2023-11-19T03:22:57;6.80;99.90
6672;DHT22;3372;48.690;12.362;2023-11-19T03:25:27;6.80;99.90
6672;DHT22;3372;48.690;12.362;2023-11-19T03:27:59;6.80;99.90
6672;DHT22;3372;48.690;12.362;2023-11-19T03:30:25;6.80;99.90
6672;DHT22;3372;48.690;12.362;2023-11-19T03:32:50;6.90;99.90
6672;DHT22;3372;48.690;12.362;2023-11-19T03:35:16;6.90;99.90
6672;DHT22;3372;48.690;12.362;2023-11-19T03:37:41;6.90;99.90
6672;DHT22;3372;48.690;12.362;2023-11-19T03:40:09;6.90;99.90
6672;DHT22;3372;48.690;12.362;2023-11-19T03:42:35;6.90;99.90
6672;DHT22;3372;48.690;12.362;2023-11-19T03:45:01;6.90;99.90
6672;DHT22;3372;48.690;12.362;2023-11-19T03:47:28;6.90;99.90
6672;DHT22;3372;48.690;12.362;2023-11-19T03:49:54;6.90;99.90
6672;DHT22;3372;48.690;12.362;2023-11-19T03:52:20;6.90;99.90
6672;DHT22;3372;48.690;12.362;2023-11-19T03:54:45;6.90;99.90
6672;DHT22;3372;48.690;12.362;2023-11-19T03:57:12;6.90;99.90
6672;DHT22;3372;48.690;12.362;2023-11-19T03:59:38;6.90;99.90
6672;DHT22;3372;48.690;12.362;2023-11-19T04:02:04;6.90;99.90
6672;DHT22;3372;48.690;12.362;2023-11-19T04:04:30;6.90;99.90
6672;DHT22;3372;48.690;12.362;2023-11-19T04:06:56;6.80;99.90
6672;DHT22;3372;48.690;12.362;2023-11-19T04:09:22;6.90;99.90
6672;DHT22;3372;48.690;12.362;2023-11-19T04:11:47;6.90;99.90
6672;DHT22;3372;48.690;12.362;2023-11-19T04:14:14;6.90;99.90
6672;DHT22;3372;48.690;12.362;2023-11-19T04:16:40;6.90;99.90
6672;DHT22;3372;48.690;12.362;2023-11-19T04:19:06;6.90;99.90
6672;DHT22;3372;48.690;12.362;2023-11-19T04:21:32;6.90;99.90
6672;DHT22;3372;48.690;12.362;2023-11-19T04:23:58;6.90;99.90
6672;DHT22;3372;48.690;12.362;2023-11-19T04:26:24;6.90;99.90
6672;DHT22;3372;48.690;12.362;2023-11-19T04:28:49;7.00;99.90
6672;DHT22;3372;48.690;12.362;2023-11-19T04:31:15;7.00;99.90
6672;DHT22;3372;48.690;12.362;2023-11-19T04:33:44;7.00;99.90
6672;DHT22;3372;48.690;12.362;2023-11-19T04:36:10;7.00;99.90
6672;DHT22;3372;48.690;12.362;2023-11-19T04:38:36;7.10;99.90
6672;DHT22;3372;48.690;12.362;2023-11-19T04:41:04;7.10;99.90
6672;DHT22;3372;48.690;12.362;2023-11-19T04:43:31;7.10;99.90
6672;DHT22;3372;48.690;12.362;2023-11-19T04:45:57;7.00;99.90
6672;DHT22;3372;48.690;12.362;2023-11-19T04:48:23;6.90;99.90
6672;DHT22;3372;48.690;12.362;2023-11-19T04:50:49;7.00;99.90
6672;DHT22;3372;48.690;12.362;2023-11-19T04:53:16;7.00;99.90
6672;DHT22;3372;48.690;12.362;2023-11-19T04:55:42;7.00;99.90
6672;DHT22;3372;48.690;12.362;2023-11-19T04:58:08;7.00;99.90
6672;DHT22;3372;48.690;12.362;2023-11-19T05:00:34;7.00;99.90
6672;DHT22;3372;48.690;12.362;2023-11-19T05:03:00;6.90;99.90
6672;DHT22;3372;48.690;12.362;2023-11-19T05:05:25;6.90;99.90
6672;DHT22;3372;48.690;12.362;2023-11-19T05:07:52;6.90;99.90
6672;DHT22;3372;48.690;12.362;2023-11-19T05:10:17;6.90;99.90
6672;DHT22;3372;48.690;12.362;2023-11-19T05:12:43;6.80;99.90
6672;DHT22;3372;48.690;12.362;2023-11-19T05:15:09;6.80;99.90
6672;DHT22;3372;48.690;12.362;2023-11-19T05:17:35;6.80;99.90
6672;DHT22;3372;48.690;12.362;2023-11-19T05:20:02;6.80;99.90
6672;DHT22;3372;48.690;12.362;2023-11-19T05:22:28;6.60;99.90
6672;DHT22;3372;48.690;12.362;2023-11-19T05:24:54;6.50;99.90
6672;DHT22;3372;48.690;12.362;2023-11-19T05:27:21;6.60;99.90
6672;DHT22;3372;48.690;12.362;2023-11-19T05:29:49;6.60;99.90
6672;DHT22;3372;48.690;12.362;2023-11-19T05:32:14;6.60;99.90
6672;DHT22;3372;48.690;12.362;2023-11-19T05:34:40;6.60;99.90
6672;DHT22;3372;48.690;12.362;2023-11-19T05:37:06;6.60;99.90
6672;DHT22;3372;48.690;12.362;2023-11-19T05:39:32;6.60;99.90
6672;DHT22;3372;48.690;12.362;2023-11-19T05:41:57;6.60;99.90
6672;DHT22;3372;48.690;12.362;2023-11-19T05:44:23;6.60;99.90
6672;DHT22;3372;48.690;12.362;2023-11-19T05:46:48;6.70;99.90
6672;DHT22;3372;48.690;12.362;2023-11-19T05:49:14;6.60;99.90
6672;DHT22;3372;48.690;12.362;2023-11-19T05:51:40;6.70;99.90
6672;DHT22;3372;48.690;12.362;2023-11-19T05:54:09;6.70;99.90
6672;DHT22;3372;48.690;12.362;2023-11-19T05:56:36;6.80;99.90
6672;DHT22;3372;48.690;12.362;2023-11-19T05:59:01;6.80;99.90
6672;DHT22;3372;48.690;12.362;2023-11-19T06:01:29;6.80;99.90
6672;DHT22;3372;48.690;12.362;2023-11-19T06:03:55;6.90;99.90
6672;DHT22;3372;48.690;12.362;2023-11-19T06:06:20;6.90;99.90
6672;DHT22;3372;48.690;12.362;2023-11-19T06:08:46;6.90;99.90
6672;DHT22;3372;48.690;12.362;2023-11-19T06:11:12;7.00;99.90
6672;DHT22;3372;48.690;12.362;2023-11-19T06:13:44;7.00;99.90
6672;DHT22;3372;48.690;12.362;2023-11-19T06:16:10;7.10;99.90
6672;DHT22;3372;48.690;12.362;2023-11-19T06:18:42;7.10;99.90
6672;DHT22;3372;48.690;12.362;2023-11-19T06:21:09;7.00;99.90
6672;DHT22;3372;48.690;12.362;2023-11-19T06:23:36;7.10;99.90
6672;DHT22;3372;48.690;12.362;2023-11-19T06:26:02;7.10;99.90
6672;DHT22;3372;48.690;12.362;2023-11-19T06:28:29;7.10;99.90
6672;DHT22;3372;48.690;12.362;2023-11-19T06:30:55;7.10;99.90
6672;DHT22;3372;48.690;12.362;2023-11-19T06:33:24;7.10;99.90
6672;DHT22;3372;48.690;12.362;2023-11-19T06:35:50;7.20;99.90
6672;DHT22;3372;48.690;12.362;2023-11-19T06:38:16;7.10;99.90
6672;DHT22;3372;48.690;12.362;2023-11-19T06:40:41;7.10;99.90
6672;DHT22;3372;48.690;12.362;2023-11-19T06:43:07;7.20;99.90
6672;DHT22;3372;48.690;12.362;2023-11-19T06:45:35;7.20;99.90
6672;DHT22;3372;48.690;12.362;2023-11-19T06:48:07;7.20;99.90
6672;DHT22;3372;48.690;12.362;2023-11-19T06:50:35;7.20;99.90
6672;DHT22;3372;48.690;12.362;2023-11-19T06:53:02;7.20;99.90
6672;DHT22;3372;48.690;12.362;2023-11-19T06:55:27;7.30;99.90
6672;DHT22;3372;48.690;12.362;2023-11-19T06:57:53;7.30;99.90
6672;DHT22;3372;48.690;12.362;2023-11-19T07:00:21;7.30;99.90
6672;DHT22;3372;48.690;12.362;2023-11-19T07:02:46;7.40;99.90
6672;DHT22;3372;48.690;12.362;2023-11-19T07:05:12;7.40;99.90
6672;DHT22;3372;48.690;12.362;2023-11-19T07:07:38;7.40;99.90
6672;DHT22;3372;48.690;12.362;2023-11-19T07:10:06;7.50;99.90
6672;DHT22;3372;48.690;12.362;2023-11-19T07:12:34;7.50;99.90
6672;DHT22;3372;48.690;12.362;2023-11-19T07:15:01;7.50;99.90
6672;DHT22;3372;48.690;12.362;2023-11-19T07:17:29;7.60;99.90
6672;DHT22;3372;48.690;12.362;2023-11-19T07:19:55;7.50;99.90
6672;DHT22;3372;48.690;12.362;2023-11-19T07:22:25;7.60;99.90
6672;DHT22;3372;48.690;12.362;2023-11-19T07:24:51;7.60;99.90
6672;DHT22;3372;48.690;12.362;2023-11-19T07:27:18;7.60;99.90
6672;DHT22;3372;48.690;12.362;2023-11-19T07:29:47;7.70;99.90
6672;DHT22;3372;48.690;12.362;2023-11-19T07:32:13;7.70;99.90
6672;DHT22;3372;48.690;12.362;2023-11-19T07:34:42;7.80;99.90
6672;DHT22;3372;48.690;12.362;2023-11-19T07:37:07;7.80;99.90
6672;DHT22;3372;48.690;12.362;2023-11-19T07:39:33;7.90;99.90
6672;DHT22;3372;48.690;12.362;2023-11-19T07:42:00;7.90;99.90
6672;DHT22;3372;48.690;12.362;2023-11-19T07:44:26;7.90;99.90
6672;DHT22;3372;48.690;12.362;2023-11-19T07:46:52;8.00;99.90
6672;DHT22;3372;48.690;12.362;2023-11-19T07:49:17;8.00;99.90
6672;DHT22;3372;48.690;12.362;2023-11-19T07:51:43;8.10;99.90
6672;DHT22;3372;48.690;12.362;2023-11-19T07:54:08;8.10;99.90
6672;DHT22;3372;48.690;12.362;2023-11-19T07:56:34;8.10;99.90
6672;DHT22;3372;48.690;12.362;2023-11-19T07:59:02;8.10;99.90
6672;DHT22;3372;48.690;12.362;2023-11-19T08:01:27;8.20;99.90
6672;DHT22;3372;48.690;12.362;2023-11-19T08:03:53;8.20;99.90
6672;DHT22;3372;48.690;12.362;2023-11-19T08:06:19;8.20;99.90
6672;DHT22;3372;48.690;12.362;2023-11-19T08:08:44;8.20;99.90
6672;DHT22;3372;48.690;12.362;2023-11-19T08:11:10;8.20;99.90
6672;DHT22;3372;48.690;12.362;2023-11-19T08:13:36;8.30;99.90
6672;DHT22;3372;48.690;12.362;2023-11-19T08:16:01;8.30;99.90
6672;DHT22;3372;48.690;12.362;2023-11-19T08:18:27;8.30;99.90
6672;DHT22;3372;48.690;12.362;2023-11-19T08:20:53;8.40;99.90
6672;DHT22;3372;48.690;12.362;2023-11-19T08:23:19;8.50;99.90
6672;DHT22;3372;48.690;12.362;2023-11-19T08:25:45;8.50;99.90
6672;DHT22;3372;48.690;12.362;2023-11-19T08:28:11;8.60;99.90
6672;DHT22;3372;48.690;12.362;2023-11-19T08:30:36;8.60;99.90
6672;DHT22;3372;48.690;12.362;2023-11-19T08:33:02;8.60;99.90
6672;DHT22;3372;48.690;12.362;2023-11-19T08:35:31;8.80;99.90
6672;DHT22;3372;48.690;12.362;2023-11-19T08:37:57;8.80;99.90
6672;DHT22;3372;48.690;12.362;2023-11-19T08:40:24;8.90;99.90
6672;DHT22;3372;48.690;12.362;2023-11-19T08:42:51;8.90;99.90
6672;DHT22;3372;48.690;12.362;2023-11-19T08:45:17;9.00;99.90
6672;DHT22;3372;48.690;12.362;2023-11-19T08:47:43;9.00;99.90
6672;DHT22;3372;48.690;12.362;2023-11-19T08:50:11;9.10;99.90
6672;DHT22;3372;48.690;12.362;2023-11-19T08:52:37;9.20;99.90
6672;DHT22;3372;48.690;12.362;2023-11-19T08:55:05;9.20;99.90
6672;DHT22;3372;48.690;12.362;2023-11-19T08:57:31;9.20;99.90
6672;DHT22;3372;48.690;12.362;2023-11-19T08:59:58;9.30;99.90
6672;DHT22;3372;48.690;12.362;2023-11-19T09:02:24;9.40;99.90
6672;DHT22;3372;48.690;12.362;2023-11-19T09:04:50;9.40;99.90
6672;DHT22;3372;48.690;12.362;2023-11-19T09:07:16;9.50;99.90
6672;DHT22;3372;48.690;12.362;2023-11-19T09:09:41;9.60;99.90
6672;DHT22;3372;48.690;12.362;2023-11-19T09:12:07;9.80;99.90
6672;DHT22;3372;48.690;12.362;2023-11-19T09:14:33;9.80;99.90
6672;DHT22;3372;48.690;12.362;2023-11-19T09:16:59;10.00;99.90
6672;DHT22;3372;48.690;12.362;2023-11-19T09:19:25;10.00;99.90
6672;DHT22;3372;48.690;12.362;2023-11-19T09:21:54;10.10;99.90
6672;DHT22;3372;48.690;12.362;2023-11-19T09:24:20;10.20;99.90
6672;DHT22;3372;48.690;12.362;2023-11-19T09:26:45;10.40;99.90
6672;DHT22;3372;48.690;12.362;2023-11-19T09:29:11;10.40;99.90
6672;DHT22;3372;48.690;12.362;2023-11-19T09:31:40;10.50;99.90
6672;DHT22;3372;48.690;12.362;2023-11-19T09:34:05;10.60;99.90
6672;DHT22;3372;48.690;12.362;2023-11-19T09:36:31;10.70;99.90
6672;DHT22;3372;48.690;12.362;2023-11-19T09:38:57;10.80;99.90
6672;DHT22;3372;48.690;12.362;2023-11-19T09:41:25;10.80;99.90
6672;DHT22;3372;48.690;12.362;2023-11-19T09:43:53;10.90;99.90
6672;DHT22;3372;48.690;12.362;2023-11-19T09:46:19;11.00;99.90
6672;DHT22;3372;48.690;12.362;2023-11-19T09:48:46;11.10;99.90
6672;DHT22;3372;48.690;12.362;2023-11-19T09:51:13;11.20;99.90
6672;DHT22;3372;48.690;12.362;2023-11-19T09:53:39;11.30;99.90
6672;DHT22;3372;48.690;12.362;2023-11-19T09:56:06;11.40;99.90
6672;DHT22;3372;48.690;12.362;2023-11-19T09:58:33;11.50;99.90
6672;DHT22;3372;48.690;12.362;2023-11-19T10:01:00;11.60;99.90
6672;DHT22;3372;48.690;12.362;2023-11-19T10:03:33;11.70;99.90
6672;DHT22;3372;48.690;12.362;2023-11-19T10:06:09;11.80;99.90
6672;DHT22;3372;48.690;12.362;2023-11-19T10:08:38;11.80;99.90
6672;DHT22;3372;48.690;12.362;2023-11-19T10:11:08;11.80;99.90
6672;DHT22;3372;48.690;12.362;2023-11-19T10:13:36;11.90;99.90
6672;DHT22;3372;48.690;12.362;2023-11-19T10:16:08;11.90;99.90
6672;DHT22;3372;48.690;12.362;2023-11-19T10:18:34;12.10;99.90
6672;DHT22;3372;48.690;12.362;2023-11-19T10:21:06;12.10;99.90
6672;DHT22;3372;48.690;12.362;2023-11-19T10:23:51;12.20;99.90
6672;DHT22;3372;48.690;12.362;2023-11-19T10:26:18;12.30;99.90
6672;DHT22;3372;48.690;12.362;2023-11-19T10:28:46;12.30;99.90
6672;DHT22;3372;48.690;12.362;2023-11-19T10:31:19;12.30;99.90
6672;DHT22;3372;48.690;12.362;2023-11-19T10:33:46;12.30;99.90
6672;DHT22;3372;48.690;12.362;2023-11-19T10:36:12;12.30;99.90
6672;DHT22;3372;48.690;12.362;2023-11-19T10:38:39;12.30;99.90
6672;DHT22;3372;48.690;12.362;2023-11-19T10:41:05;12.30;99.90
6672;DHT22;3372;48.690;12.362;2023-11-19T10:43:43;12.30;99.90
6672;DHT22;3372;48.690;12.362;2023-11-19T10:46:13;12.30;99.90
6672;DHT22;3372;48.690;12.362;2023-11-19T10:48:40;12.40;99.90
6672;DHT22;3372;48.690;12.362;2023-11-19T10:51:06;12.40;99.90
6672;DHT22;3372;48.690;12.362;2023-11-19T10:53:42;12.50;99.90
6672;DHT22;3372;48.690;12.362;2023-11-19T10:56:10;12.50;99.90
6672;DHT22;3372;48.690;12.362;2023-11-19T10:58:37;12.60;99.90
6672;DHT22;3372;48.690;12.362;2023-11-19T11:01:13;12.50;99.90
6672;DHT22;3372;48.690;12.362;2023-11-19T11:03:42;12.50;99.90
6672;DHT22;3372;48.690;12.362;2023-11-19T11:06:12;12.50;99.90
6672;DHT22;3372;48.690;12.362;2023-11-19T11:08:39;12.50;99.90
6672;DHT22;3372;48.690;12.362;2023-11-19T11:11:05;12.60;99.90
6672;DHT22;3372;48.690;12.362;2023-11-19T11:13:34;12.50;99.90
6672;DHT22;3372;48.690;12.362;2023-11-19T11:16:01;12.60;99.90
6672;DHT22;3372;48.690;12.362;2023-11-19T11:18:29;12.60;99.90
6672;DHT22;3372;48.690;12.362;2023-11-19T11:21:07;12.70;99.90
6672;DHT22;3372;48.690;12.362;2023-11-19T11:37:27;12.80;99.90
6672;DHT22;3372;48.690;12.362;2023-11-19T11:39:57;12.80;99.90
6672;DHT22;3372;48.690;12.362;2023-11-19T11:45:06;13.00;99.90
6672;DHT22;3372;48.690;12.362;2023-11-19T11:50:16;13.20;99.90
6672;DHT22;3372;48.690;12.362;2023-11-19T11:55:35;13.30;99.90
6672;DHT22;3372;48.690;12.362;2023-11-19T11:58:07;13.40;99.90
6672;DHT22;3372;48.690;12.362;2023-11-19T12:00:39;13.50;99.90
6672;DHT22;3372;48.690;12.362;2023-11-19T12:03:06;13.60;99.90
6672;DHT22;3372;48.690;12.362;2023-11-19T12:05:33;13.60;99.90
6672;DHT22;3372;48.690;12.362;2023-11-19T12:08:04;13.60;99.90
6672;DHT22;3372;48.690;12.362;2023-11-19T12:10:37;13.60;99.90
6672;DHT22;3372;48.690;12.362;2023-11-19T12:13:08;13.60;99.90
6672;DHT22;3372;48.690;12.362;2023-11-19T12:18:30;13.80;99.90
6672;DHT22;3372;48.690;12.362;2023-11-19T12:20:59;13.80;99.90
6672;DHT22;3372;48.690;12.362;2023-11-19T12:23:31;13.80;99.90
6672;DHT22;3372;48.690;12.362;2023-11-19T12:25:57;13.90;99.90
6672;DHT22;3372;48.690;12.362;2023-11-19T12:28:23;13.90;99.90
6672;DHT22;3372;48.690;12.362;2023-11-19T12:30:53;13.90;99.90
6672;DHT22;3372;48.690;12.362;2023-11-19T12:33:19;13.80;99.90
6672;DHT22;3372;48.690;12.362;2023-11-19T12:35:48;13.90;99.90
6672;DHT22;3372;48.690;12.362;2023-11-19T12:38:24;13.90;99.90
6672;DHT22;3372;48.690;12.362;2023-11-19T12:41:06;13.90;99.90
6672;DHT22;3372;48.690;12.362;2023-11-19T12:43:32;13.90;99.90
6672;DHT22;3372;48.690;12.362;2023-11-19T12:46:00;14.00;99.90
6672;DHT22;3372;48.690;12.362;2023-11-19T12:48:25;14.10;99.90
6672;DHT22;3372;48.690;12.362;2023-11-19T12:50:52;14.20;99.90
6672;DHT22;3372;48.690;12.362;2023-11-19T12:53:22;14.30;99.90
6672;DHT22;3372;48.690;12.362;2023-11-19T12:55:48;14.40;99.90
6672;DHT22;3372;48.690;12.362;2023-11-19T12:58:33;14.30;99.90
6672;DHT22;3372;48.690;12.362;2023-11-19T13:01:04;14.30;99.90
6672;DHT22;3372;48.690;12.362;2023-11-19T13:03:35;14.20;99.90
6672;DHT22;3372;48.690;12.362;2023-11-19T13:08:36;14.10;99.90
6672;DHT22;3372;48.690;12.362;2023-11-19T13:11:03;14.10;99.90
6672;DHT22;3372;48.690;12.362;2023-11-19T13:13:29;14.10;99.90
6672;DHT22;3372;48.690;12.362;2023-11-19T13:16:04;14.00;99.90
6672;DHT22;3372;48.690;12.362;2023-11-19T13:18:35;14.00;99.90
6672;DHT22;3372;48.690;12.362;2023-11-19T13:21:01;14.00;99.90
6672;DHT22;3372;48.690;12.362;2023-11-19T13:23:28;14.10;99.90
6672;DHT22;3372;48.690;12.362;2023-11-19T13:25:53;14.10;99.90
6672;DHT22;3372;48.690;12.362;2023-11-19T13:28:19;14.10;99.90
6672;DHT22;3372;48.690;12.362;2023-11-19T13:30:44;14.10;99.90
6672;DHT22;3372;48.690;12.362;2023-11-19T13:33:10;14.20;99.90
6672;DHT22;3372;48.690;12.362;2023-11-19T13:35:38;14.20;99.90
6672;DHT22;3372;48.690;12.362;2023-11-19T13:38:06;14.20;99.90
6672;DHT22;3372;48.690;12.362;2023-11-19T13:40:31;14.20;99.90
6672;DHT22;3372;48.690;12.362;2023-11-19T13:42:57;14.10;99.90
6672;DHT22;3372;48.690;12.362;2023-11-19T13:45:22;14.20;99.90
6672;DHT22;3372;48.690;12.362;2023-11-19T13:47:48;14.20;99.90
6672;DHT22;3372;48.690;12.362;2023-11-19T13:50:15;14.20;99.90
6672;DHT22;3372;48.690;12.362;2023-11-19T13:52:44;14.20;99.90
6672;DHT22;3372;48.690;12.362;2023-11-19T13:55:12;14.20;99.90
6672;DHT22;3372;48.690;12.362;2023-11-19T13:57:38;14.20;99.90
6672;DHT22;3372;48.690;12.362;2023-11-19T14:00:05;14.20;99.90
6672;DHT22;3372;48.690;12.362;2023-11-19T14:02:33;14.10;99.90
6672;DHT22;3372;48.690;12.362;2023-11-19T14:04:58;14.10;99.90
6672;DHT22;3372;48.690;12.362;2023-11-19T14:07:24;14.10;99.90
6672;DHT22;3372;48.690;12.362;2023-11-19T14:09:49;14.10;99.90
6672;DHT22;3372;48.690;12.362;2023-11-19T14:12:15;14.10;99.90
6672;DHT22;3372;48.690;12.362;2023-11-19T14:14:41;14.10;99.90
6672;DHT22;3372;48.690;12.362;2023-11-19T14:17:07;14.20;99.90
6672;DHT22;3372;48.690;12.362;2023-11-19T14:19:33;14.20;99.90
6672;DHT22;3372;48.690;12.362;2023-11-19T14:21:59;14.20;99.90
6672;DHT22;3372;48.690;12.362;2023-11-19T14:24:25;14.20;99.90
6672;DHT22;3372;48.690;12.362;2023-11-19T14:26:51;14.10;99.90
6672;DHT22;3372;48.690;12.362;2023-11-19T14:29:17;14.10;99.90
6672;DHT22;3372;48.690;12.362;2023-11-19T14:31:43;14.10;99.90
6672;DHT22;3372;48.690;12.362;2023-11-19T14:34:08;14.10;99.90
6672;DHT22;3372;48.690;12.362;2023-11-19T14:36:34;14.10;99.90
6672;DHT22;3372;48.690;12.362;2023-11-19T14:39:00;14.10;99.90
6672;DHT22;3372;48.690;12.362;2023-11-19T14:41:26;14.10;99.90
6672;DHT22;3372;48.690;12.362;2023-11-19T14:43:51;14.10;99.90
6672;DHT22;3372;48.690;12.362;2023-11-19T14:46:18;14.10;99.90
6672;DHT22;3372;48.690;12.362;2023-11-19T14:48:43;14.10;99.90
6672;DHT22;3372;48.690;12.362;2023-11-19T14:51:09;14.10;99.90
6672;DHT22;3372;48.690;12.362;2023-11-19T14:53:34;14.10;99.90
6672;DHT22;3372;48.690;12.362;2023-11-19T14:56:00;14.10;99.90
6672;DHT22;3372;48.690;12.362;2023-11-19T14:58:26;14.00;99.90
6672;DHT22;3372;48.690;12.362;2023-11-19T15:00:52;14.00;99.90
6672;DHT22;3372;48.690;12.362;2023-11-19T15:03:18;13.90;99.90
6672;DHT22;3372;48.690;12.362;2023-11-19T15:05:47;14.00;99.90
6672;DHT22;3372;48.690;12.362;2023-11-19T15:08:13;14.00;99.90
6672;DHT22;3372;48.690;12.362;2023-11-19T15:10:41;14.00;99.90
6672;DHT22;3372;48.690;12.362;2023-11-19T15:13:07;13.90;99.90
6672;DHT22;3372;48.690;12.362;2023-11-19T15:15:34;13.90;99.90
6672;DHT22;3372;48.690;12.362;2023-11-19T15:18:00;13.80;99.90
6672;DHT22;3372;48.690;12.362;2023-11-19T15:20:25;13.80;99.90
6672;DHT22;3372;48.690;12.362;2023-11-19T15:22:55;13.80;99.90
6672;DHT22;3372;48.690;12.362;2023-11-19T15:25:21;13.80;99.90
6672;DHT22;3372;48.690;12.362;2023-11-19T15:27:48;13.70;99.90
6672;DHT22;3372;48.690;12.362;2023-11-19T15:30:14;13.70;99.90
6672;DHT22;3372;48.690;12.362;2023-11-19T15:32:39;13.70;99.90
6672;DHT22;3372;48.690;12.362;2023-11-19T15:35:06;13.70;99.90
6672;DHT22;3372;48.690;12.362;2023-11-19T15:37:38;13.70;99.90
6672;DHT22;3372;48.690;12.362;2023-11-19T15:40:09;13.60;99.90
6672;DHT22;3372;48.690;12.362;2023-11-19T15:42:37;13.60;99.90
6672;DHT22;3372;48.690;12.362;2023-11-19T15:45:03;13.70;99.90
6672;DHT22;3372;48.690;12.362;2023-11-19T15:47:30;13.60;99.90
6672;DHT22;3372;48.690;12.362;2023-11-19T15:49:56;13.60;99.90
6672;DHT22;3372;48.690;12.362;2023-11-19T15:52:22;13.60;99.90
6672;DHT22;3372;48.690;12.362;2023-11-19T15:54:48;13.60;99.90
6672;DHT22;3372;48.690;12.362;2023-11-19T15:57:14;13.50;99.90
6672;DHT22;3372;48.690;12.362;2023-11-19T15:59:40;13.50;99.90
6672;DHT22;3372;48.690;12.362;2023-11-19T16:02:05;13.50;99.90
6672;DHT22;3372;48.690;12.362;2023-11-19T16:04:31;13.40;99.90
6672;DHT22;3372;48.690;12.362;2023-11-19T16:06:56;13.50;99.90
6672;DHT22;3372;48.690;12.362;2023-11-19T16:09:22;13.50;99.90
6672;DHT22;3372;48.690;12.362;2023-11-19T16:11:51;13.50;99.90
6672;DHT22;3372;48.690;12.362;2023-11-19T16:14:16;13.40;99.90
6672;DHT22;3372;48.690;12.362;2023-11-19T16:16:42;13.40;99.90
6672;DHT22;3372;48.690;12.362;2023-11-19T16:19:07;13.40;99.90
6672;DHT22;3372;48.690;12.362;2023-11-19T16:21:34;13.40;99.90